Cambridge, MA (02138)

8:50 PM EDT on July 20, 2017 (GMT -0400)
Huron Village | | Change Station

Elev 62 ft 42.38 °N, 71.13 °W | Updated 20 minutes ago

Mostly Cloudy
Mostly Cloudy
83.0 °F
Feels Like 84 °F
N
0.0
Wind Variable Wind from North
Gusts 0.0 mph

Today
High -- | Low -- °F
--% Chance of Precip.
Yesterday
High -- | Low -- °F
Precip. -- in
Pressure 29.81 in
Visibility 10.0 miles
Clouds Few 2500 ft
Scattered Clouds 7500 ft
Mostly Cloudy 13000 ft
Mostly Cloudy 20000 ft
Overcast 32000 ft
Heat Index 84 °F
Dew Point 64 °F
Humidity 53%
Rainfall 0.00 in
Snow Depth Not available.
5:25 AM 8:15 PM
Waning Crescent, 8% visible
METAR KBOS 202354Z VRB05KT 10SM FEW025 SCT075 BKN130 BKN200 OVC320 31/19 A2981 RMK AO2 SLP095 T03110189 10333 20306 55005 $
Pressure 29.81 in
Visibility 10.0 miles
Clouds Few 2500 ft
Scattered Clouds 7500 ft
Mostly Cloudy 13000 ft
Mostly Cloudy 20000 ft
Overcast 32000 ft
Heat Index 84 °F
Dew Point 64 °F
Humidity 53%
Rainfall 0.00 in
Snow Depth Not available.
5:25 AM 8:15 PM
Waning Crescent, 8% visible
METAR KBOS 202354Z VRB05KT 10SM FEW025 SCT075 BKN130 BKN200 OVC320 31/19 A2981 RMK AO2 SLP095 T03110189 10333 20306 55005 $

Get Severe Weather Alerts

Thanks for signing up!

Be on the lookout for a verification email in your inbox.

You'll start receiving the daily forecast at 6 AM.

×

10-Day Weather Forecast

Almanac

Astronomy

Jul. 20, 2017 Rise Set
Actual Time
Civil Twilight
Nautical Twilight
Astronomical Twilight
Moon
Length of Visible Light
Length of Day
Tomorrow will be .
, % of the Moon is Illuminated

Today's Extremes

State Highs State Lows

Community

WunderPhotos

Category 6

Welcome to Category 6. This is the collective home for Weather Underground's featured writeups by Dr. Jeff Masters (right), Bob Henson (left), Chris Burt, and other regular contributors.

Nearby

Air Quality

  Air Quality AQ Index Pollutant
Not available.

Snow Depth

Station Depth Elevation

Earthquake Activity

City Distance Mag. Time & Date
Minimum magnitude displayed is 2.5.

Coastal Water Temperatures

Place Temperature

Stations

Nearby Weather Stations

Station Location Temp. Windchill Dew Point Humidity Wind Precip. Elev Updated Type
                   

Watches & Warnings

There are currently no watches in effect.